createdAt,value
2019-06-15T00:00:26.320Z,101256.22
2019-06-15T00:03:30.684Z,101256.14
2019-06-15T00:06:36.813Z,101261.73
2019-06-15T00:09:41.179Z,101259.03
2019-06-15T00:12:45.503Z,101254.88
2019-06-15T00:15:49.942Z,101244.11
2019-06-15T00:18:54.417Z,101246.69
2019-06-15T00:21:58.813Z,101238.22
2019-06-15T00:25:03.273Z,101232.98
2019-06-15T00:28:07.610Z,101222.63
2019-06-15T00:31:11.943Z,101224.19
2019-06-15T00:34:16.265Z,101217.67
2019-06-15T00:37:20.624Z,101218.06
2019-06-15T00:40:24.944Z,101210.16
2019-06-15T00:43:29.418Z,101204.56
2019-06-15T00:46:33.756Z,101197.45
2019-06-15T00:49:38.172Z,101194.97
2019-06-15T00:52:42.482Z,101185.15
2019-06-15T00:55:46.810Z,101180.01
2019-06-15T00:58:51.169Z,101172.15
2019-06-15T01:01:55.606Z,101168.13
2019-06-15T01:05:00.023Z,101161.19
2019-06-15T01:08:04.349Z,101153.28
2019-06-15T01:11:08.643Z,101157.84
2019-06-15T01:14:12.967Z,101157.92
2019-06-15T01:17:17.291Z,101151.33
2019-06-15T01:20:21.943Z,101147.30
2019-06-15T01:23:27.693Z,101150.79
2019-06-15T01:26:32.006Z,101149.72
2019-06-15T01:29:36.334Z,101149.52
2019-06-15T01:32:40.650Z,101133.34
2019-06-15T01:35:44.933Z,101126.09
2019-06-15T01:38:49.307Z,101121.14
2019-06-15T01:41:53.818Z,101114.09
2019-06-15T01:44:58.110Z,101107.19
2019-06-15T01:48:02.486Z,101116.31
2019-06-15T01:51:06.997Z,101112.29
2019-06-15T01:54:13.103Z,101119.20
2019-06-15T01:57:17.422Z,101111.06
2019-06-15T02:00:23.521Z,101105.97
2019-06-15T02:03:27.834Z,101100.32
2019-06-15T02:06:32.223Z,101090.13
2019-06-15T02:09:36.562Z,101088.20
2019-06-15T02:12:40.890Z,101074.58
2019-06-15T02:15:45.229Z,101075.78
2019-06-15T02:18:49.629Z,101082.03
2019-06-15T02:21:53.935Z,101076.31
2019-06-15T02:24:58.236Z,101065.23
2019-06-15T02:28:02.557Z,101063.28
2019-06-15T02:31:07.905Z,101055.83
2019-06-15T02:34:12.224Z,101048.53
2019-06-15T02:37:16.555Z,101056.14
2019-06-15T02:40:20.963Z,101059.83
2019-06-15T02:43:25.272Z,101054.25
2019-06-15T02:46:29.679Z,101052.75
2019-06-15T02:49:34.002Z,101043.09
2019-06-15T02:52:38.500Z,101039.82
2019-06-15T02:55:50.629Z,101035.45
2019-06-15T02:58:50.561Z,101034.38
2019-06-15T03:01:54.846Z,101028.62
2019-06-15T03:04:59.136Z,101030.37
2019-06-15T03:08:03.713Z,101026.50
2019-06-15T03:11:08.033Z,101032.00
2019-06-15T03:14:12.332Z,101031.74
2019-06-15T03:17:16.640Z,101030.27
2019-06-15T03:20:21.290Z,101026.30
2019-06-15T03:23:25.603Z,101023.33
2019-06-15T03:26:29.956Z,101026.48
2019-06-15T03:29:34.251Z,101023.25
2019-06-15T03:32:38.560Z,101020.48
2019-06-15T03:35:42.867Z,101010.45
2019-06-15T03:38:47.277Z,101009.11
2019-06-15T03:41:51.596Z,101007.09
2019-06-15T03:44:55.895Z,101008.31
2019-06-15T03:48:00.209Z,101004.49
2019-06-15T03:51:04.539Z,101010.20
2019-06-15T03:54:08.939Z,101009.23
2019-06-15T03:57:13.249Z,101013.14
2019-06-15T04:01:01.871Z,101013.30
2019-06-15T04:04:06.259Z,101017.00
2019-06-15T04:07:10.560Z,101014.48
2019-06-15T04:10:14.871Z,101013.93
2019-06-15T04:13:19.201Z,101001.84
2019-06-15T04:16:25.001Z,100989.42
2019-06-15T04:19:29.300Z,100995.27
2019-06-15T04:22:35.505Z,100992.14
2019-06-15T04:25:39.957Z,100986.61
2019-06-15T04:28:44.286Z,100981.23
2019-06-15T04:31:48.640Z,100982.83
2019-06-15T04:34:52.947Z,100980.30
2019-06-15T04:37:57.270Z,100970.11
2019-06-15T04:41:01.837Z,100965.09
2019-06-15T04:44:06.164Z,100969.20
2019-06-15T04:47:10.540Z,100983.59
2019-06-15T04:50:14.817Z,100972.22
2019-06-15T04:53:19.110Z,100956.58
2019-06-15T04:56:23.476Z,100959.27
2019-06-15T04:59:27.840Z,100967.74
2019-06-15T05:02:32.257Z,100966.50
2019-06-15T05:05:36.538Z,100968.03
2019-06-15T05:08:40.849Z,100965.70
2019-06-15T05:11:45.143Z,100959.59
2019-06-15T05:14:49.442Z,100942.57
2019-06-15T05:17:53.724Z,100941.60
2019-06-15T05:20:58.052Z,100933.35
2019-06-15T05:24:02.428Z,100940.76
2019-06-15T05:27:06.878Z,100932.33
2019-06-15T05:30:12.032Z,100933.41
2019-06-15T05:33:16.308Z,100935.71
2019-06-15T05:36:20.601Z,100936.64
2019-06-15T05:39:24.941Z,100938.60
2019-06-15T05:42:29.211Z,100944.62
2019-06-15T05:45:33.505Z,100944.70
2019-06-15T05:48:37.813Z,100939.33
2019-06-15T05:51:42.218Z,100933.78
2019-06-15T05:54:46.607Z,100937.81
2019-06-15T05:57:50.901Z,100956.55
2019-06-15T06:00:55.181Z,100967.24
2019-06-15T06:03:59.485Z,100960.20
2019-06-15T06:07:03.798Z,100953.95
2019-06-15T06:10:10.757Z,100962.11
2019-06-15T06:13:14.203Z,100958.54
2019-06-15T06:16:18.489Z,100964.62
2019-06-15T06:19:22.790Z,100960.77
2019-06-15T06:22:28.170Z,100958.41
2019-06-15T06:25:32.473Z,100950.63
2019-06-15T06:28:36.757Z,100959.81
2019-06-15T06:31:41.075Z,100952.94
2019-06-15T06:34:45.522Z,100952.05
2019-06-15T06:37:49.824Z,100938.84
2019-06-15T06:40:54.246Z,100916.73
2019-06-15T06:43:58.544Z,100916.73
2019-06-15T06:47:02.981Z,100903.42
2019-06-15T06:50:09.243Z,100884.14
2019-06-15T06:53:14.677Z,100875.90
2019-06-15T06:56:18.980Z,100869.50
2019-06-15T06:59:23.414Z,100864.45
2019-06-15T07:02:27.707Z,100869.73
2019-06-15T07:05:31.995Z,100872.36
2019-06-15T07:08:36.315Z,100880.34
2019-06-15T07:11:42.400Z,100872.74
2019-06-15T07:14:46.706Z,100849.08
2019-06-15T07:17:51.036Z,100838.42
2019-06-15T07:20:55.446Z,100836.83
2019-06-15T07:23:59.906Z,100833.53
2019-06-15T07:27:04.210Z,100846.38
2019-06-15T07:30:10.407Z,100851.34
2019-06-15T07:33:14.916Z,100896.00
2019-06-15T07:36:19.246Z,100905.56
2019-06-15T07:39:23.589Z,100910.47
2019-06-15T07:42:27.870Z,100859.42
2019-06-15T07:45:32.184Z,100836.61
2019-06-15T07:48:36.511Z,100817.66
2019-06-15T07:51:40.854Z,100810.71
2019-06-15T07:54:45.236Z,100814.41
2019-06-15T07:57:49.526Z,100811.34
2019-06-15T08:00:53.895Z,100812.72
2019-06-15T08:03:58.246Z,100814.19
2019-06-15T08:07:02.548Z,100806.67
2019-06-15T08:10:07.207Z,100797.13
2019-06-15T08:13:11.528Z,100798.16
2019-06-15T08:16:15.839Z,100775.08
2019-06-15T08:19:20.144Z,100767.94
2019-06-15T08:22:26.265Z,100750.64
2019-06-15T08:25:30.690Z,100738.50
2019-06-15T08:28:40.235Z,100731.38
2019-06-15T08:31:40.999Z,100721.55
2019-06-15T08:34:45.316Z,100716.23
2019-06-15T08:37:49.620Z,100711.98
2019-06-15T08:40:53.920Z,100723.22
2019-06-15T08:43:58.211Z,100744.33
2019-06-15T08:47:02.927Z,100784.08
2019-06-15T08:50:09.593Z,100809.48
2019-06-15T08:53:13.845Z,100795.47
2019-06-15T08:56:18.139Z,100814.12
2019-06-15T08:59:22.459Z,100818.84
2019-06-15T09:02:26.756Z,100803.55
2019-06-15T09:05:31.135Z,100783.98
2019-06-15T09:08:35.435Z,100776.23
2019-06-15T09:11:41.527Z,100774.97
2019-06-15T09:14:45.824Z,100770.02
2019-06-15T09:17:50.134Z,100770.33
2019-06-15T09:20:54.443Z,100761.17
2019-06-15T09:23:58.741Z,100766.36
2019-06-15T09:27:03.054Z,100764.17
2019-06-15T09:30:07.782Z,100748.14
2019-06-15T09:33:12.082Z,100742.08
2019-06-15T09:36:16.378Z,100726.59
2019-06-15T09:39:20.819Z,100728.08
2019-06-15T09:42:25.132Z,100725.70
2019-06-15T09:45:32.770Z,100726.31
2019-06-15T09:48:35.446Z,100730.59
2019-06-15T09:51:39.762Z,100723.86
2019-06-15T09:54:44.085Z,100705.03
2019-06-15T09:57:48.369Z,100702.93
2019-06-15T10:00:52.661Z,100686.66
2019-06-15T10:03:58.778Z,100672.26
2019-06-15T10:07:03.124Z,100685.47
2019-06-15T10:10:08.031Z,100695.84
2019-06-15T10:13:12.370Z,100701.23
2019-06-15T10:16:16.698Z,100725.91
2019-06-15T10:19:21.012Z,100751.17
2019-06-15T10:22:25.302Z,100759.47
2019-06-15T10:25:29.620Z,100763.70
2019-06-15T10:28:33.919Z,100774.81
2019-06-15T10:31:39.724Z,100771.51
2019-06-15T10:34:45.515Z,100765.45
2019-06-15T10:37:49.868Z,100760.23
2019-06-15T10:40:55.309Z,100783.55
2019-06-15T10:43:59.615Z,100777.97
2019-06-15T10:47:03.953Z,100770.34
2019-06-15T10:50:08.748Z,100774.13
2019-06-15T10:53:13.018Z,100776.41
2019-06-15T10:56:17.352Z,100766.88
2019-06-15T10:59:21.598Z,100755.19
2019-06-15T11:02:25.889Z,100742.88
2019-06-15T11:05:30.305Z,100723.69
2019-06-15T11:08:34.707Z,100695.48
2019-06-15T11:11:38.984Z,100687.32
2019-06-15T11:14:43.347Z,100712.44
2019-06-15T11:17:48.300Z,100718.13
2019-06-15T11:20:59.133Z,100704.85
2019-06-15T11:24:04.668Z,100701.11
2019-06-15T11:27:10.420Z,100700.19
2019-06-15T11:30:14.897Z,100703.28
2019-06-15T11:33:19.231Z,100715.04
2019-06-15T11:36:24.892Z,100741.61
2019-06-15T11:39:29.223Z,100767.75
2019-06-15T11:42:33.553Z,100807.77
2019-06-15T11:45:37.860Z,100808.89
2019-06-15T11:48:42.300Z,100810.65
2019-06-15T11:51:46.701Z,100810.78
2019-06-15T11:54:50.998Z,100830.55
2019-06-15T11:57:55.309Z,100839.52
2019-06-15T12:00:59.687Z,100820.94
2019-06-15T12:04:04.192Z,100788.28
2019-06-15T12:07:08.500Z,100798.91
2019-06-15T12:10:12.892Z,100789.98
2019-06-15T12:13:17.202Z,100757.49
2019-06-15T12:16:21.489Z,100742.45
2019-06-15T12:19:25.812Z,100742.70
2019-06-15T12:22:30.126Z,100764.75
2019-06-15T12:25:34.430Z,100762.83
2019-06-15T12:28:38.911Z,100766.83
2019-06-15T12:31:43.250Z,100758.06
2019-06-15T12:34:47.554Z,100757.03
2019-06-15T12:37:53.638Z,100749.19
2019-06-15T12:40:57.958Z,100730.83
2019-06-15T12:44:02.291Z,100711.87
2019-06-15T12:47:06.595Z,100705.91
2019-06-15T12:50:11.304Z,100696.59
2019-06-15T12:53:15.590Z,100705.06
2019-06-15T12:56:19.879Z,100709.38
2019-06-15T12:59:25.631Z,100707.63
2019-06-15T13:02:29.958Z,100711.30
2019-06-15T13:05:34.485Z,100708.50
2019-06-15T13:08:38.937Z,100698.97
2019-06-15T13:11:43.428Z,100707.45
2019-06-15T13:14:48.808Z,100702.81
2019-06-15T13:17:53.230Z,100743.83
2019-06-15T13:20:57.639Z,100783.92
2019-06-15T13:24:02.487Z,100811.67
2019-06-15T13:27:06.848Z,100804.63
2019-06-15T13:30:17.507Z,100786.88
2019-06-15T13:33:21.937Z,100762.22
2019-06-15T13:36:26.404Z,100789.17
2019-06-15T13:39:30.749Z,100778.77
2019-06-15T13:42:35.179Z,100792.50
2019-06-15T13:45:39.606Z,100787.47
2019-06-15T13:48:43.937Z,100789.50
2019-06-15T13:51:48.363Z,100789.68
2019-06-15T13:54:55.721Z,100763.31
2019-06-15T13:58:00.157Z,100755.02
2019-06-15T14:01:04.459Z,100757.23
2019-06-15T14:04:08.757Z,100761.14
2019-06-15T14:07:13.091Z,100771.77
2019-06-15T14:10:17.474Z,100777.14
2019-06-15T14:13:21.775Z,100775.80
2019-06-15T14:16:26.110Z,100773.18
2019-06-15T14:19:30.420Z,100768.91
2019-06-15T14:22:34.820Z,100751.16
2019-06-15T14:25:39.232Z,100752.19
2019-06-15T14:28:43.713Z,100757.97
2019-06-15T14:31:50.764Z,100765.23
2019-06-15T14:34:55.251Z,100775.70
2019-06-15T14:37:59.655Z,100796.14
2019-06-15T14:41:03.978Z,100785.02
2019-06-15T14:44:08.344Z,100791.62
2019-06-15T14:47:12.789Z,100809.84
2019-06-15T14:50:18.664Z,100791.70
2019-06-15T14:53:23.059Z,100789.16
2019-06-15T14:56:27.409Z,100802.08
2019-06-15T14:59:31.702Z,100793.86
2019-06-15T15:02:37.127Z,100791.98
2019-06-15T15:05:41.707Z,100784.34
2019-06-15T15:08:47.115Z,100785.73
2019-06-15T15:11:51.974Z,100777.22
2019-06-15T15:14:56.801Z,100774.45
2019-06-15T15:18:01.176Z,100780.73
2019-06-15T15:21:06.860Z,100781.98
2019-06-15T15:24:11.613Z,100783.36
2019-06-15T15:27:16.000Z,100783.53
2019-06-15T15:30:36.337Z,100785.73
2019-06-15T15:33:40.592Z,100782.59
2019-06-15T15:36:46.241Z,100787.32
2019-06-15T15:39:50.771Z,100778.98
2019-06-15T15:42:56.224Z,100782.28
2019-06-15T15:46:00.598Z,100785.86
2019-06-15T15:49:06.999Z,100787.02
2019-06-15T15:52:10.976Z,100790.91
2019-06-15T15:55:17.370Z,100792.49
2019-06-15T15:58:21.328Z,100796.43
2019-06-15T16:01:26.375Z,100796.98
2019-06-15T16:04:31.030Z,100796.31
2019-06-15T16:07:36.422Z,100800.40
2019-06-15T16:10:40.949Z,100803.31
2019-06-15T16:13:46.193Z,100797.92
2019-06-15T16:16:50.785Z,100805.98
2019-06-15T16:19:56.396Z,100805.96
2019-06-15T16:23:00.893Z,100814.70
2019-06-15T16:26:05.152Z,100822.94
2019-06-15T16:29:09.463Z,100828.54
2019-06-15T16:32:15.988Z,100828.07
2019-06-15T16:35:19.815Z,100836.92
2019-06-15T16:38:24.108Z,100841.09
2019-06-15T16:41:28.420Z,100852.20
2019-06-15T16:44:32.738Z,100850.05
2019-06-15T16:47:37.002Z,100852.71
2019-06-15T16:50:41.290Z,100872.17
2019-06-15T16:53:47.281Z,100880.63
2019-06-15T16:56:51.646Z,100882.98
2019-06-15T16:59:56.136Z,100878.82
2019-06-15T17:03:16.366Z,100879.41
2019-06-15T17:06:07.165Z,100886.45
2019-06-15T17:09:11.559Z,100884.23
2019-06-15T17:12:16.917Z,100878.29
2019-06-15T17:15:21.489Z,100877.48
2019-06-15T17:18:26.305Z,100880.33
2019-06-15T17:21:30.632Z,100889.97
2019-06-15T17:24:36.968Z,100881.33
2019-06-15T17:27:40.984Z,100883.80
2019-06-15T17:30:45.751Z,100885.27
2019-06-15T17:33:50.230Z,100892.53
2019-06-15T17:36:54.625Z,100901.92
2019-06-15T17:39:58.938Z,100903.48
2019-06-15T17:43:03.232Z,100891.73
2019-06-15T17:46:07.553Z,100894.83
2019-06-15T17:49:11.896Z,100886.91
2019-06-15T17:52:16.890Z,100891.05
2019-06-15T17:55:21.433Z,100888.95
2019-06-15T17:58:26.316Z,100886.95
2019-06-15T18:01:30.686Z,100888.47
2019-06-15T18:04:37.165Z,100883.33
2019-06-15T18:07:41.123Z,100882.52
2019-06-15T18:10:47.520Z,100873.19
2019-06-15T18:13:51.538Z,100867.16
2019-06-15T18:16:58.111Z,100866.50
2019-06-15T18:20:01.943Z,100862.83
2019-06-15T18:23:06.344Z,100867.02
2019-06-15T18:26:10.659Z,100862.19
2019-06-15T18:29:16.814Z,100857.16
2019-06-15T18:32:20.971Z,100857.15
2019-06-15T18:35:26.917Z,100852.77
2019-06-15T18:38:31.475Z,100849.02
2019-06-15T18:41:37.002Z,100847.77
2019-06-15T18:44:41.555Z,100848.95
2019-06-15T18:47:47.172Z,100853.63
2019-06-15T18:50:51.744Z,100852.80
2019-06-15T18:53:56.248Z,100860.73
2019-06-15T18:57:00.614Z,100861.70
2019-06-15T19:00:07.306Z,100862.20
2019-06-15T19:03:11.623Z,100863.87
2019-06-15T19:06:17.148Z,100861.19
2019-06-15T19:09:21.548Z,100858.27
2019-06-15T19:12:26.353Z,100858.13
2019-06-15T19:15:30.875Z,100857.34
2019-06-15T19:18:36.979Z,100855.27
2019-06-15T19:21:41.439Z,100862.78
2019-06-15T19:24:50.291Z,100855.47
2019-06-15T19:27:51.774Z,100859.91
2019-06-15T19:30:56.327Z,100862.05
2019-06-15T19:34:00.657Z,100869.68
2019-06-15T19:37:06.821Z,100875.61
2019-06-15T19:40:11.449Z,100882.89
2019-06-15T19:43:16.264Z,100889.47
2019-06-15T19:46:20.927Z,100901.48
2019-06-15T19:49:25.876Z,100908.91
2019-06-15T19:52:30.291Z,100909.11
2019-06-15T19:55:36.637Z,100927.63
2019-06-15T19:58:40.955Z,100934.75
2019-06-15T20:01:46.837Z,100939.92
2019-06-15T20:05:00.319Z,100942.48
2019-06-15T20:07:57.482Z,100946.00
2019-06-15T20:11:01.919Z,100952.71
2019-06-15T20:14:06.767Z,100964.95
2019-06-15T20:17:11.213Z,100976.34
2019-06-15T20:20:16.749Z,100978.69
2019-06-15T20:23:21.166Z,100988.67
2019-06-15T20:26:26.810Z,100994.93
2019-06-15T20:29:31.258Z,101003.36
2019-06-15T20:32:36.852Z,101007.46
2019-06-15T20:35:41.350Z,101020.10
2019-06-15T20:38:46.878Z,101030.09
2019-06-15T20:41:52.796Z,101039.39
2019-06-15T20:44:57.195Z,101053.86
2019-06-15T20:48:01.494Z,101051.78
2019-06-15T20:51:09.782Z,101065.31
2019-06-15T20:54:12.019Z,101073.04
2019-06-15T20:57:16.640Z,101088.98
2019-06-15T21:00:22.345Z,101100.55
2019-06-15T21:03:27.022Z,101120.41
2019-06-15T21:06:31.412Z,101129.36
2019-06-15T21:09:36.579Z,101144.00
2019-06-15T21:12:40.868Z,101150.81
2019-06-15T21:15:48.492Z,101150.17
2019-06-15T21:18:52.847Z,101156.31
2019-06-15T21:21:57.248Z,101152.39
2019-06-15T21:25:01.536Z,101173.91
2019-06-15T21:28:06.724Z,101179.48
2019-06-15T21:31:11.247Z,101185.66
2019-06-15T21:34:15.628Z,101193.98
2019-06-15T21:37:19.919Z,101195.52
2019-06-15T21:40:27.074Z,101196.45
2019-06-15T21:43:30.364Z,101197.33
2019-06-15T21:46:36.231Z,101195.66
2019-06-15T21:49:40.750Z,101190.99
2019-06-15T21:52:45.976Z,101191.14
2019-06-15T21:55:50.439Z,101208.86
2019-06-15T21:58:56.520Z,101201.34
2019-06-15T22:02:00.995Z,101202.64
2019-06-15T22:05:07.103Z,101203.17
2019-06-15T22:08:11.516Z,101213.87
2019-06-15T22:11:16.089Z,101218.67
2019-06-15T22:14:20.495Z,101225.70
2019-06-15T22:17:26.225Z,101227.42
2019-06-15T22:20:30.657Z,101221.16
2019-06-15T22:23:36.383Z,101226.52
2019-06-15T22:26:40.944Z,101228.80
2019-06-15T22:29:47.389Z,101239.12
2019-06-15T22:32:51.881Z,101236.34
2019-06-15T22:35:56.541Z,101241.16
2019-06-15T22:39:00.948Z,101249.22
2019-06-15T22:42:06.938Z,101247.33
2019-06-15T22:45:12.660Z,101251.22
2019-06-15T22:48:16.927Z,101249.22
2019-06-15T22:51:21.356Z,101242.78
2019-06-15T22:54:26.128Z,101252.72
2019-06-15T22:57:30.427Z,101253.70
2019-06-15T23:00:37.358Z,101246.51
2019-06-15T23:03:40.734Z,101251.08
2019-06-15T23:06:47.987Z,101241.64
2019-06-15T23:09:51.150Z,101237.55
2019-06-15T23:12:56.874Z,101246.89
2019-06-15T23:16:01.443Z,101241.87
2019-06-15T23:19:07.800Z,101242.38
2019-06-15T23:22:11.740Z,101251.61
2019-06-15T23:25:16.768Z,101260.55
2019-06-15T23:28:21.340Z,101260.55
2019-06-15T23:31:25.658Z,101253.98
2019-06-15T23:34:29.963Z,101248.20
2019-06-15T23:37:34.258Z,101253.09
2019-06-15T23:40:38.634Z,101253.33
2019-06-15T23:43:43.003Z,101256.00
2019-06-15T23:46:47.296Z,101253.33
2019-06-15T23:49:51.561Z,101259.84
2019-06-15T23:52:55.848Z,101259.66
2019-06-15T23:56:00.152Z,101263.65
2019-06-15T23:59:06.732Z,101270.52
